Terminal Aerodrome Forecast
Issued by NWS

Home | Current Version | Previous Version | Text Only | Print | Product List | Glossary On
Versions: 1 2 3 4 5 6 7 8 9 10 11 12 13
000
FTUS46 KHNX 110520
TAFFAT
TAF
KFAT 110520Z 1106/1206 VRB03KT 4SM HZ SCT250=

USA.gov is the U.S. government's official web portal to all federal, state and local government web resources and services.